Flight Number: EUR1196 Duration: 3:00
Departure: Paris Charles-de-Gaulle (LFPG) at 03:00 Distance: 1138 Nm
Arrival: Athens Int'l (LGAV) at 06:00 Equipment: A330-200

Weather Information
Paris-Aeroport Charles De Gaulle, France (LFPG) 49-01N 002-32E 109M Aug 17, 2018 - 05:00 PM EDT / 2018.08.17 2100 UTC
Wind: from the N (350 degrees) at 9 MPH (8 KT):0
Visibility: greater than 7 mile(s):0 Temperature: 62 F (17 C) Dew Point: 51 F (11 C) Relative Humidity: 67% Pressure (altimeter): 30.21 in. Hg (1023 hPa)
ob: LFPG 172100Z 35008KT CAVOK 17/11 Q1023 NOSIG cycle: 21
Sunrise: 04:49 Sunset: 18:58 (UTC)

Athens Eleftherios Venizelos International Airport, Greece (LGAV) 37-56N 023-56E Aug 17, 2018 - 04:50 PM EDT / 2018.08.17 2050 UTC
Wind: from the WNW (300 degrees) at 3 MPH (3 KT):0
Visibility: greater than 7 mile(s):0 Temperature: 69 F (21 C) Dew Point: 60 F (16 C) Relative Humidity: 73% Pressure (altimeter): 29.88 in. Hg (1012 hPa)
ob: LGAV 172050Z 30003KT CAVOK 21/16 Q1012 NOSIG cycle: 21
Sunrise: 03:44 Sunset: 17:11 (UTC)

TAF:2018/08/17 18:12 TAF TAF LGAV 171700Z 1718/1818 04010KT 9999 FEW030 BECMG 1719/1721 34010KT BECMG 1806/1808 02014G24KT

Previous Pireps for this route
Date Aircraft Flight time Fuel used Landing rate On time
2016-01-18A330-20003.16650000Yes
2018-04-27A330-20002.5655682-150No
(pireps marked green are flown by you)

Route map